Mendota, Minnesota
Current Conditions -  °F | °C
As of 4:53 AM on Wednesday 26 Nov 2014 (Local Time) from KMSP Reporting Station
Light Snow Light Snow  
Wind Chill: 14°   Ceiling: 2200
Heat Index: 24°   Visibility: 9mi
Dew Point: 15°   Wind: 9mph
Humidity: 69%   Direction: 80°E
Pressure: 30.05"   Gusts: NA
Location:  44.89°N, 93.16°W
Report Text: KMSP 261053Z 08008KT 9SM -SN FEW017 OVC022 M04/M09 A3005 RMK AO2 SNB50 SLP188 P0000 T10441094
Loading
Personal Weather Stations






























Interactive Weather Map New forecast layout! Learn more

10-Day Weather Forecast

Advertisements
Track Severe Weather on mobile